sensor_id;sensor_type;location;lat;lon;timestamp;pressure;altitude;pressure_sealevel;temperature;humidity
68873;BME280;55907;50.806;12.882;2023-07-16T00:01:51;970.9;;;22.4;67.0
68873;BME280;55907;50.806;12.882;2023-07-16T00:04:52;970.9;;;22.4;66.0
68873;BME280;55907;50.806;12.882;2023-07-16T00:07:54;971.0;;;22.3;65.5
68873;BME280;55907;50.806;12.882;2023-07-16T00:10:55;971.0;;;22.3;65.6
68873;BME280;55907;50.806;12.882;2023-07-16T00:13:56;970.9;;;22.2;65.7
68873;BME280;55907;50.806;12.882;2023-07-16T00:16:58;970.9;;;22.2;67.1
68873;BME280;55907;50.806;12.882;2023-07-16T00:19:59;970.9;;;22.2;68.3
68873;BME280;55907;50.806;12.882;2023-07-16T00:23:01;971.0;;;22.1;69.1
68873;BME280;55907;50.806;12.882;2023-07-16T00:26:02;970.8;;;21.8;71.6
68873;BME280;55907;50.806;12.882;2023-07-16T00:29:04;970.6;;;21.6;72.8
68873;BME280;55907;50.806;12.882;2023-07-16T00:32:05;970.5;;;21.5;73.1
68873;BME280;55907;50.806;12.882;2023-07-16T00:35:07;970.6;;;21.4;73.9
68873;BME280;55907;50.806;12.882;2023-07-16T00:38:08;970.6;;;21.2;76.5
68873;BME280;55907;50.806;12.882;2023-07-16T00:41:09;970.5;;;20.9;80.7
68873;BME280;55907;50.806;12.882;2023-07-16T00:44:11;970.4;;;20.5;82.8
68873;BME280;55907;50.806;12.882;2023-07-16T00:47:12;970.5;;;20.3;85.6
68873;BME280;55907;50.806;12.882;2023-07-16T00:50:14;970.5;;;20.2;86.5
68873;BME280;55907;50.806;12.882;2023-07-16T00:53:15;970.5;;;20.0;87.7
68873;BME280;55907;50.806;12.882;2023-07-16T00:56:17;970.6;;;20.0;87.2
68873;BME280;55907;50.806;12.882;2023-07-16T00:59:18;970.6;;;20.0;88.8
68873;BME280;55907;50.806;12.882;2023-07-16T01:02:19;970.8;;;20.1;87.8
68873;BME280;55907;50.806;12.882;2023-07-16T01:05:22;971.0;;;20.1;86.7
68873;BME280;55907;50.806;12.882;2023-07-16T01:08:28;971.0;;;20.0;87.4
68873;BME280;55907;50.806;12.882;2023-07-16T01:11:24;971.2;;;20.0;85.2
68873;BME280;55907;50.806;12.882;2023-07-16T01:14:25;971.4;;;19.9;89.4
68873;BME280;55907;50.806;12.882;2023-07-16T01:17:26;971.1;;;19.8;89.5
68873;BME280;55907;50.806;12.882;2023-07-16T01:20:28;971.0;;;19.7;88.9
68873;BME280;55907;50.806;12.882;2023-07-16T01:23:39;971.1;;;19.7;91.2
68873;BME280;55907;50.806;12.882;2023-07-16T01:26:36;971.1;;;19.7;89.3
68873;BME280;55907;50.806;12.882;2023-07-16T01:29:35;971.1;;;19.8;88.8
68873;BME280;55907;50.806;12.882;2023-07-16T01:32:35;970.9;;;19.8;90.2
68873;BME280;55907;50.806;12.882;2023-07-16T01:35:35;970.9;;;19.8;88.1
68873;BME280;55907;50.806;12.882;2023-07-16T01:38:36;971.0;;;19.8;89.9
68873;BME280;55907;50.806;12.882;2023-07-16T01:41:38;970.9;;;19.8;90.9
68873;BME280;55907;50.806;12.882;2023-07-16T01:44:39;970.8;;;19.7;89.0
68873;BME280;55907;50.806;12.882;2023-07-16T01:47:48;970.5;;;19.7;90.4
68873;BME280;55907;50.806;12.882;2023-07-16T01:50:42;970.6;;;19.7;91.6
68873;BME280;55907;50.806;12.882;2023-07-16T01:53:44;970.8;;;19.6;93.2
68873;BME280;55907;50.806;12.882;2023-07-16T01:56:45;970.6;;;19.5;95.7
68873;BME280;55907;50.806;12.882;2023-07-16T01:59:46;970.7;;;19.5;96.3
68873;BME280;55907;50.806;12.882;2023-07-16T02:02:48;971.1;;;19.5;97.9
68873;BME280;55907;50.806;12.882;2023-07-16T02:05:49;971.0;;;19.4;98.4
68873;BME280;55907;50.806;12.882;2023-07-16T02:08:51;971.0;;;19.4;98.6
68873;BME280;55907;50.806;12.882;2023-07-16T02:11:52;971.2;;;19.4;99.0
68873;BME280;55907;50.806;12.882;2023-07-16T02:14:54;971.3;;;19.3;99.9
68873;BME280;55907;50.806;12.882;2023-07-16T02:17:55;971.3;;;19.3;99.5
68873;BME280;55907;50.806;12.882;2023-07-16T02:20:56;971.4;;;19.3;99.9
68873;BME280;55907;50.806;12.882;2023-07-16T02:23:58;971.4;;;19.3;100.0
68873;BME280;55907;50.806;12.882;2023-07-16T02:26:59;971.4;;;19.3;100.0
68873;BME280;55907;50.806;12.882;2023-07-16T02:30:01;971.4;;;19.3;99.8
68873;BME280;55907;50.806;12.882;2023-07-16T02:33:02;971.4;;;19.3;100.0
68873;BME280;55907;50.806;12.882;2023-07-16T02:36:04;971.5;;;19.3;100.0
68873;BME280;55907;50.806;12.882;2023-07-16T02:39:05;971.5;;;19.3;100.0
68873;BME280;55907;50.806;12.882;2023-07-16T02:42:07;971.6;;;19.3;99.7
68873;BME280;55907;50.806;12.882;2023-07-16T02:45:08;971.5;;;19.4;100.0
68873;BME280;55907;50.806;12.882;2023-07-16T02:48:09;971.5;;;19.4;100.0
68873;BME280;55907;50.806;12.882;2023-07-16T02:51:11;971.5;;;19.3;99.6
68873;BME280;55907;50.806;12.882;2023-07-16T02:54:12;971.6;;;19.4;100.0
68873;BME280;55907;50.806;12.882;2023-07-16T02:57:14;971.6;;;19.4;99.8
68873;BME280;55907;50.806;12.882;2023-07-16T03:00:16;971.6;;;19.3;100.0
68873;BME280;55907;50.806;12.882;2023-07-16T03:03:17;971.7;;;19.4;100.0
68873;BME280;55907;50.806;12.882;2023-07-16T03:06:18;971.7;;;19.3;100.0
68873;BME280;55907;50.806;12.882;2023-07-16T03:09:20;971.7;;;19.3;100.0
68873;BME280;55907;50.806;12.882;2023-07-16T03:12:21;971.7;;;19.3;100.0
68873;BME280;55907;50.806;12.882;2023-07-16T03:15:23;971.7;;;19.3;99.2
68873;BME280;55907;50.806;12.882;2023-07-16T03:18:27;971.7;;;19.3;99.5
68873;BME280;55907;50.806;12.882;2023-07-16T03:21:25;971.5;;;19.3;99.0
68873;BME280;55907;50.806;12.882;2023-07-16T03:24:27;971.5;;;19.3;99.9
68873;BME280;55907;50.806;12.882;2023-07-16T03:27:28;971.5;;;19.3;98.6
68873;BME280;55907;50.806;12.882;2023-07-16T03:30:30;971.4;;;19.3;98.9
68873;BME280;55907;50.806;12.882;2023-07-16T03:33:31;971.2;;;19.3;99.1
68873;BME280;55907;50.806;12.882;2023-07-16T03:36:32;970.9;;;19.3;98.6
68873;BME280;55907;50.806;12.882;2023-07-16T03:39:34;970.7;;;19.4;98.4
68873;BME280;55907;50.806;12.882;2023-07-16T03:42:35;970.7;;;19.4;98.1
68873;BME280;55907;50.806;12.882;2023-07-16T03:45:37;970.7;;;19.4;99.6
68873;BME280;55907;50.806;12.882;2023-07-16T03:48:38;970.5;;;19.4;97.7
68873;BME280;55907;50.806;12.882;2023-07-16T03:51:40;970.4;;;19.5;97.8
68873;BME280;55907;50.806;12.882;2023-07-16T03:54:41;970.4;;;19.5;97.8
68873;BME280;55907;50.806;12.882;2023-07-16T03:57:42;970.5;;;19.6;96.5
68873;BME280;55907;50.806;12.882;2023-07-16T04:00:44;970.4;;;19.6;97.4
68873;BME280;55907;50.806;12.882;2023-07-16T04:03:45;970.4;;;19.6;96.8
68873;BME280;55907;50.806;12.882;2023-07-16T04:06:47;970.4;;;19.6;97.0
68873;BME280;55907;50.806;12.882;2023-07-16T04:09:48;970.3;;;19.6;97.9
68873;BME280;55907;50.806;12.882;2023-07-16T04:12:50;970.3;;;19.5;97.9
68873;BME280;55907;50.806;12.882;2023-07-16T04:15:51;970.2;;;19.5;96.7
68873;BME280;55907;50.806;12.882;2023-07-16T04:18:52;970.1;;;19.5;96.7
68873;BME280;55907;50.806;12.882;2023-07-16T04:21:54;969.9;;;19.6;95.5
68873;BME280;55907;50.806;12.882;2023-07-16T04:24:55;969.9;;;19.5;96.1
68873;BME280;55907;50.806;12.882;2023-07-16T04:27:57;970.0;;;19.6;96.0
68873;BME280;55907;50.806;12.882;2023-07-16T04:30:58;970.4;;;19.7;96.6
68873;BME280;55907;50.806;12.882;2023-07-16T04:34:00;970.5;;;19.7;96.2
68873;BME280;55907;50.806;12.882;2023-07-16T04:37:01;970.6;;;19.7;95.7
68873;BME280;55907;50.806;12.882;2023-07-16T04:40:03;970.7;;;19.7;94.8
68873;BME280;55907;50.806;12.882;2023-07-16T04:43:04;970.7;;;19.7;93.6
68873;BME280;55907;50.806;12.882;2023-07-16T04:46:05;971.0;;;19.7;94.0
68873;BME280;55907;50.806;12.882;2023-07-16T04:49:07;971.1;;;19.8;94.3
68873;BME280;55907;50.806;12.882;2023-07-16T04:52:08;971.2;;;19.8;96.0
68873;BME280;55907;50.806;12.882;2023-07-16T04:55:10;971.6;;;19.9;97.2
68873;BME280;55907;50.806;12.882;2023-07-16T04:58:12;971.6;;;19.9;96.4
68873;BME280;55907;50.806;12.882;2023-07-16T05:01:13;971.7;;;20.0;95.7
68873;BME280;55907;50.806;12.882;2023-07-16T05:04:14;971.6;;;20.1;95.4
68873;BME280;55907;50.806;12.882;2023-07-16T05:07:15;971.7;;;20.0;94.5
68873;BME280;55907;50.806;12.882;2023-07-16T05:10:17;971.8;;;20.1;95.4
68873;BME280;55907;50.806;12.882;2023-07-16T05:13:18;971.8;;;20.2;96.1
68873;BME280;55907;50.806;12.882;2023-07-16T05:16:20;972.0;;;20.4;91.2
68873;BME280;55907;50.806;12.882;2023-07-16T05:19:21;971.9;;;20.7;89.4
68873;BME280;55907;50.806;12.882;2023-07-16T05:22:23;971.9;;;21.4;86.6
68873;BME280;55907;50.806;12.882;2023-07-16T05:25:24;971.9;;;21.8;81.9
68873;BME280;55907;50.806;12.882;2023-07-16T05:28:26;972.0;;;21.7;81.7
68873;BME280;55907;50.806;12.882;2023-07-16T05:31:27;972.2;;;21.6;81.0
68873;BME280;55907;50.806;12.882;2023-07-16T05:34:28;972.1;;;21.5;80.7
68873;BME280;55907;50.806;12.882;2023-07-16T05:37:30;972.1;;;21.5;81.5
68873;BME280;55907;50.806;12.882;2023-07-16T05:40:32;972.1;;;21.7;80.0
68873;BME280;55907;50.806;12.882;2023-07-16T05:43:33;972.1;;;21.7;79.9
68873;BME280;55907;50.806;12.882;2023-07-16T05:46:34;972.3;;;21.7;79.3
68873;BME280;55907;50.806;12.882;2023-07-16T05:49:36;972.3;;;21.8;79.0
68873;BME280;55907;50.806;12.882;2023-07-16T05:52:37;972.4;;;21.8;79.2
68873;BME280;55907;50.806;12.882;2023-07-16T05:55:39;972.6;;;21.7;78.4
68873;BME280;55907;50.806;12.882;2023-07-16T05:58:41;972.5;;;21.6;78.3
68873;BME280;55907;50.806;12.882;2023-07-16T06:01:41;972.6;;;21.6;77.7
68873;BME280;55907;50.806;12.882;2023-07-16T06:04:43;972.6;;;21.5;77.8
68873;BME280;55907;50.806;12.882;2023-07-16T06:07:44;972.6;;;21.9;76.4
68873;BME280;55907;50.806;12.882;2023-07-16T06:10:46;972.7;;;21.9;75.8
68873;BME280;55907;50.806;12.882;2023-07-16T06:13:47;972.7;;;21.8;76.2
68873;BME280;55907;50.806;12.882;2023-07-16T06:16:48;972.7;;;21.8;76.5
68873;BME280;55907;50.806;12.882;2023-07-16T06:19:50;972.8;;;21.6;76.8
68873;BME280;55907;50.806;12.882;2023-07-16T06:22:51;972.8;;;21.5;77.0
68873;BME280;55907;50.806;12.882;2023-07-16T06:25:54;972.7;;;21.6;76.4
68873;BME280;55907;50.806;12.882;2023-07-16T06:28:54;972.6;;;21.7;75.5
68873;BME280;55907;50.806;12.882;2023-07-16T06:31:57;972.6;;;21.8;74.9
68873;BME280;55907;50.806;12.882;2023-07-16T06:34:57;972.6;;;22.0;74.2
68873;BME280;55907;50.806;12.882;2023-07-16T06:37:58;972.8;;;22.2;73.8
68873;BME280;55907;50.806;12.882;2023-07-16T06:41:00;972.7;;;22.2;71.3
68873;BME280;55907;50.806;12.882;2023-07-16T06:44:01;972.8;;;22.1;70.2
68873;BME280;55907;50.806;12.882;2023-07-16T06:47:03;972.9;;;22.4;70.8
68873;BME280;55907;50.806;12.882;2023-07-16T06:50:04;972.9;;;22.9;70.1
68873;BME280;55907;50.806;12.882;2023-07-16T06:53:05;972.9;;;23.2;67.8
68873;BME280;55907;50.806;12.882;2023-07-16T06:56:07;973.0;;;23.6;67.0
68873;BME280;55907;50.806;12.882;2023-07-16T06:59:08;973.0;;;23.7;64.0
68873;BME280;55907;50.806;12.882;2023-07-16T07:02:10;973.1;;;23.7;64.4
68873;BME280;55907;50.806;12.882;2023-07-16T07:05:11;973.2;;;23.7;63.8
68873;BME280;55907;50.806;12.882;2023-07-16T07:08:12;973.3;;;23.6;63.2
68873;BME280;55907;50.806;12.882;2023-07-16T07:11:14;973.3;;;23.4;63.8
68873;BME280;55907;50.806;12.882;2023-07-16T07:14:15;973.2;;;23.2;64.0
68873;BME280;55907;50.806;12.882;2023-07-16T07:17:16;973.2;;;23.4;64.3
68873;BME280;55907;50.806;12.882;2023-07-16T07:20:18;973.2;;;23.8;62.7
68873;BME280;55907;50.806;12.882;2023-07-16T07:23:19;973.2;;;23.8;62.3
68873;BME280;55907;50.806;12.882;2023-07-16T07:26:21;973.2;;;23.8;62.7
68873;BME280;55907;50.806;12.882;2023-07-16T07:29:22;973.2;;;23.7;62.8
68873;BME280;55907;50.806;12.882;2023-07-16T07:32:23;973.2;;;24.0;62.2
68873;BME280;55907;50.806;12.882;2023-07-16T07:35:25;973.2;;;24.2;61.2
68873;BME280;55907;50.806;12.882;2023-07-16T07:38:26;973.2;;;24.3;61.0
68873;BME280;55907;50.806;12.882;2023-07-16T07:41:28;973.1;;;24.5;61.2
68873;BME280;55907;50.806;12.882;2023-07-16T07:44:29;973.1;;;24.6;60.2
68873;BME280;55907;50.806;12.882;2023-07-16T07:47:30;973.2;;;24.5;59.3
68873;BME280;55907;50.806;12.882;2023-07-16T07:50:32;973.2;;;24.4;56.8
68873;BME280;55907;50.806;12.882;2023-07-16T07:53:33;973.2;;;24.2;56.1
68873;BME280;55907;50.806;12.882;2023-07-16T07:56:34;973.3;;;24.1;55.7
68873;BME280;55907;50.806;12.882;2023-07-16T07:59:36;973.2;;;24.2;55.2
68873;BME280;55907;50.806;12.882;2023-07-16T08:02:38;973.3;;;24.4;53.6
68873;BME280;55907;50.806;12.882;2023-07-16T08:05:39;973.4;;;24.3;52.1
68873;BME280;55907;50.806;12.882;2023-07-16T08:08:40;973.4;;;24.0;52.9
68873;BME280;55907;50.806;12.882;2023-07-16T08:11:42;973.4;;;24.0;52.9
68873;BME280;55907;50.806;12.882;2023-07-16T08:14:43;973.6;;;24.1;52.9
68873;BME280;55907;50.806;12.882;2023-07-16T08:17:45;973.5;;;24.0;52.6
68873;BME280;55907;50.806;12.882;2023-07-16T08:20:46;973.4;;;24.1;52.9
68873;BME280;55907;50.806;12.882;2023-07-16T08:23:48;973.5;;;24.2;52.7
68873;BME280;55907;50.806;12.882;2023-07-16T08:26:48;973.5;;;24.4;52.1
68873;BME280;55907;50.806;12.882;2023-07-16T08:29:50;973.6;;;24.5;51.4
68873;BME280;55907;50.806;12.882;2023-07-16T08:32:51;973.5;;;24.3;50.7
68873;BME280;55907;50.806;12.882;2023-07-16T08:35:52;973.6;;;24.2;51.5
68873;BME280;55907;50.806;12.882;2023-07-16T08:38:54;973.5;;;24.3;51.6
68873;BME280;55907;50.806;12.882;2023-07-16T08:41:55;973.6;;;25.0;50.2
68873;BME280;55907;50.806;12.882;2023-07-16T08:44:57;973.5;;;25.7;47.9
68873;BME280;55907;50.806;12.882;2023-07-16T08:47:58;973.6;;;25.9;44.3
68873;BME280;55907;50.806;12.882;2023-07-16T08:51:01;973.6;;;25.6;44.4
68873;BME280;55907;50.806;12.882;2023-07-16T08:54:01;973.5;;;25.7;43.1
68873;BME280;55907;50.806;12.882;2023-07-16T08:57:02;973.5;;;25.6;44.9
68873;BME280;55907;50.806;12.882;2023-07-16T09:00:05;973.7;;;25.3;45.5
68873;BME280;55907;50.806;12.882;2023-07-16T09:03:05;973.7;;;24.8;47.7
68873;BME280;55907;50.806;12.882;2023-07-16T09:06:06;973.7;;;24.7;48.7
68873;BME280;55907;50.806;12.882;2023-07-16T09:09:08;973.7;;;24.6;48.5
68873;BME280;55907;50.806;12.882;2023-07-16T09:12:11;973.7;;;24.7;47.5
68873;BME280;55907;50.806;12.882;2023-07-16T09:15:11;973.8;;;25.1;47.1
68873;BME280;55907;50.806;12.882;2023-07-16T09:18:11;973.7;;;25.9;45.7
68873;BME280;55907;50.806;12.882;2023-07-16T09:21:13;973.7;;;26.3;43.9
68873;BME280;55907;50.806;12.882;2023-07-16T09:24:14;973.6;;;26.3;43.5
68873;BME280;55907;50.806;12.882;2023-07-16T09:27:16;973.7;;;26.6;43.3
68873;BME280;55907;50.806;12.882;2023-07-16T09:30:17;973.6;;;26.4;43.1
68873;BME280;55907;50.806;12.882;2023-07-16T09:33:20;973.8;;;26.5;44.8
68873;BME280;55907;50.806;12.882;2023-07-16T09:36:23;973.8;;;26.5;43.6
68873;BME280;55907;50.806;12.882;2023-07-16T09:39:22;973.8;;;26.6;42.6
68873;BME280;55907;50.806;12.882;2023-07-16T09:42:22;973.8;;;26.4;43.3
68873;BME280;55907;50.806;12.882;2023-07-16T09:45:24;973.8;;;26.3;43.8
68873;BME280;55907;50.806;12.882;2023-07-16T09:48:25;973.9;;;26.5;43.8
68873;BME280;55907;50.806;12.882;2023-07-16T09:51:27;974.0;;;27.0;43.6
68873;BME280;55907;50.806;12.882;2023-07-16T09:54:31;974.0;;;26.9;43.6
68873;BME280;55907;50.806;12.882;2023-07-16T09:57:35;973.9;;;27.0;43.7
68873;BME280;55907;50.806;12.882;2023-07-16T10:00:31;973.9;;;26.7;43.2
68873;BME280;55907;50.806;12.882;2023-07-16T10:03:32;974.0;;;26.6;43.8
68873;BME280;55907;50.806;12.882;2023-07-16T10:06:33;974.0;;;26.5;43.8
68873;BME280;55907;50.806;12.882;2023-07-16T10:09:37;974.0;;;26.8;43.5
68873;BME280;55907;50.806;12.882;2023-07-16T10:12:36;973.9;;;27.0;42.5
68873;BME280;55907;50.806;12.882;2023-07-16T10:15:39;974.0;;;27.4;41.7
68873;BME280;55907;50.806;12.882;2023-07-16T10:18:39;974.0;;;27.5;40.8
68873;BME280;55907;50.806;12.882;2023-07-16T10:21:40;974.0;;;27.7;41.4
68873;BME280;55907;50.806;12.882;2023-07-16T10:24:41;974.0;;;27.3;41.6
68873;BME280;55907;50.806;12.882;2023-07-16T10:27:44;974.0;;;26.9;43.1
68873;BME280;55907;50.806;12.882;2023-07-16T10:30:44;973.9;;;26.4;42.2
68873;BME280;55907;50.806;12.882;2023-07-16T10:33:57;973.8;;;26.3;42.4
68873;BME280;55907;50.806;12.882;2023-07-16T10:36:47;974.0;;;26.4;42.7
68873;BME280;55907;50.806;12.882;2023-07-16T10:39:49;973.9;;;26.5;42.6
68873;BME280;55907;50.806;12.882;2023-07-16T10:42:52;973.9;;;26.7;42.5
68873;BME280;55907;50.806;12.882;2023-07-16T10:45:51;973.9;;;27.0;42.1
68873;BME280;55907;50.806;12.882;2023-07-16T10:48:52;974.0;;;26.9;42.5
68873;BME280;55907;50.806;12.882;2023-07-16T10:51:53;974.0;;;26.7;42.9
68873;BME280;55907;50.806;12.882;2023-07-16T10:54:55;973.9;;;26.7;43.0
68873;BME280;55907;50.806;12.882;2023-07-16T10:57:56;973.9;;;26.5;44.0
68873;BME280;55907;50.806;12.882;2023-07-16T11:00:58;973.9;;;26.8;42.9
68873;BME280;55907;50.806;12.882;2023-07-16T11:04:00;973.8;;;26.7;43.3
68873;BME280;55907;50.806;12.882;2023-07-16T11:07:03;973.9;;;27.1;42.6
68873;BME280;55907;50.806;12.882;2023-07-16T11:10:02;973.8;;;26.7;43.6
68873;BME280;55907;50.806;12.882;2023-07-16T11:13:03;973.8;;;27.0;43.0
68873;BME280;55907;50.806;12.882;2023-07-16T11:16:07;973.8;;;27.2;42.0
68873;BME280;55907;50.806;12.882;2023-07-16T11:19:06;973.8;;;27.2;42.8
68873;BME280;55907;50.806;12.882;2023-07-16T11:22:08;973.7;;;27.4;42.1
68873;BME280;55907;50.806;12.882;2023-07-16T11:25:12;973.7;;;27.7;41.8
68873;BME280;55907;50.806;12.882;2023-07-16T11:28:10;973.7;;;27.9;41.0
68873;BME280;55907;50.806;12.882;2023-07-16T11:31:13;973.7;;;27.5;41.3
68873;BME280;55907;50.806;12.882;2023-07-16T11:34:13;973.6;;;27.6;41.3
68873;BME280;55907;50.806;12.882;2023-07-16T11:37:15;973.6;;;28.0;40.9
68873;BME280;55907;50.806;12.882;2023-07-16T11:40:16;973.7;;;27.9;40.6
68873;BME280;55907;50.806;12.882;2023-07-16T11:43:18;973.6;;;27.5;41.2
68873;BME280;55907;50.806;12.882;2023-07-16T11:46:18;973.6;;;27.3;41.4
68873;BME280;55907;50.806;12.882;2023-07-16T11:49:19;973.7;;;27.6;40.7
68873;BME280;55907;50.806;12.882;2023-07-16T11:52:21;973.6;;;27.6;40.5
68873;BME280;55907;50.806;12.882;2023-07-16T11:55:22;973.5;;;27.7;41.5
68873;BME280;55907;50.806;12.882;2023-07-16T11:58:23;973.5;;;27.9;39.8
68873;BME280;55907;50.806;12.882;2023-07-16T12:01:25;973.5;;;28.0;39.5
68873;BME280;55907;50.806;12.882;2023-07-16T12:04:26;973.5;;;28.0;39.1
68873;BME280;55907;50.806;12.882;2023-07-16T12:07:31;973.5;;;28.0;39.2
68873;BME280;55907;50.806;12.882;2023-07-16T12:10:29;973.5;;;28.2;39.7
68873;BME280;55907;50.806;12.882;2023-07-16T12:13:30;973.6;;;27.9;38.4
68873;BME280;55907;50.806;12.882;2023-07-16T12:16:31;973.5;;;27.8;38.6
68873;BME280;55907;50.806;12.882;2023-07-16T12:19:33;973.5;;;27.9;38.7
68873;BME280;55907;50.806;12.882;2023-07-16T12:22:34;973.5;;;27.9;36.4
68873;BME280;55907;50.806;12.882;2023-07-16T12:25:35;973.5;;;27.7;35.8
68873;BME280;55907;50.806;12.882;2023-07-16T12:28:37;973.5;;;27.8;36.1
68873;BME280;55907;50.806;12.882;2023-07-16T12:31:38;973.5;;;27.9;37.7
68873;BME280;55907;50.806;12.882;2023-07-16T12:34:39;973.5;;;27.8;36.8
68873;BME280;55907;50.806;12.882;2023-07-16T12:37:41;973.6;;;28.1;37.9
68873;BME280;55907;50.806;12.882;2023-07-16T12:40:42;973.6;;;27.8;35.5
68873;BME280;55907;50.806;12.882;2023-07-16T12:43:44;973.6;;;27.6;36.1
68873;BME280;55907;50.806;12.882;2023-07-16T12:46:45;973.7;;;27.7;36.2
68873;BME280;55907;50.806;12.882;2023-07-16T12:49:46;973.5;;;27.7;35.8
68873;BME280;55907;50.806;12.882;2023-07-16T12:52:48;973.5;;;27.7;35.5
68873;BME280;55907;50.806;12.882;2023-07-16T12:55:49;973.6;;;27.9;37.4
68873;BME280;55907;50.806;12.882;2023-07-16T12:58:50;973.6;;;27.9;36.3
68873;BME280;55907;50.806;12.882;2023-07-16T13:01:52;973.6;;;28.2;35.9
68873;BME280;55907;50.806;12.882;2023-07-16T13:04:53;973.6;;;28.0;35.2
68873;BME280;55907;50.806;12.882;2023-07-16T13:07:54;973.6;;;28.2;35.3
68873;BME280;55907;50.806;12.882;2023-07-16T13:10:56;973.6;;;28.3;34.6
68873;BME280;55907;50.806;12.882;2023-07-16T13:13:57;973.8;;;28.4;34.9
68873;BME280;55907;50.806;12.882;2023-07-16T13:16:58;973.7;;;28.1;33.8
68873;BME280;55907;50.806;12.882;2023-07-16T13:20:00;973.7;;;28.3;34.4
68873;BME280;55907;50.806;12.882;2023-07-16T13:23:01;973.7;;;28.0;33.7
68873;BME280;55907;50.806;12.882;2023-07-16T13:26:02;973.7;;;27.9;34.5
68873;BME280;55907;50.806;12.882;2023-07-16T13:29:04;973.7;;;27.8;34.0
68873;BME280;55907;50.806;12.882;2023-07-16T13:32:05;973.7;;;27.9;34.6
68873;BME280;55907;50.806;12.882;2023-07-16T13:35:07;973.8;;;28.0;34.7
68873;BME280;55907;50.806;12.882;2023-07-16T13:38:08;973.6;;;27.9;34.8
68873;BME280;55907;50.806;12.882;2023-07-16T13:41:09;973.7;;;28.0;34.9
68873;BME280;55907;50.806;12.882;2023-07-16T13:44:10;973.7;;;28.0;34.1
68873;BME280;55907;50.806;12.882;2023-07-16T13:47:12;973.7;;;28.1;34.8
68873;BME280;55907;50.806;12.882;2023-07-16T13:50:13;973.8;;;28.1;34.6
68873;BME280;55907;50.806;12.882;2023-07-16T13:53:15;973.7;;;28.2;34.2
68873;BME280;55907;50.806;12.882;2023-07-16T13:56:16;973.8;;;28.0;34.1
68873;BME280;55907;50.806;12.882;2023-07-16T13:59:17;973.9;;;27.8;34.9
68873;BME280;55907;50.806;12.882;2023-07-16T14:02:19;973.8;;;27.5;35.1
68873;BME280;55907;50.806;12.882;2023-07-16T14:05:20;973.7;;;27.7;35.5
68873;BME280;55907;50.806;12.882;2023-07-16T14:08:21;973.7;;;27.9;35.6
68873;BME280;55907;50.806;12.882;2023-07-16T14:11:23;973.6;;;28.0;35.5
68873;BME280;55907;50.806;12.882;2023-07-16T14:14:24;973.7;;;28.1;35.4
68873;BME280;55907;50.806;12.882;2023-07-16T14:17:25;973.7;;;28.3;35.6
68873;BME280;55907;50.806;12.882;2023-07-16T14:20:27;973.7;;;28.1;35.0
68873;BME280;55907;50.806;12.882;2023-07-16T14:23:28;973.6;;;28.0;35.4
68873;BME280;55907;50.806;12.882;2023-07-16T14:26:29;973.6;;;27.9;35.9
68873;BME280;55907;50.806;12.882;2023-07-16T14:29:31;973.6;;;28.0;36.4
68873;BME280;55907;50.806;12.882;2023-07-16T14:32:33;973.6;;;28.0;35.8
68873;BME280;55907;50.806;12.882;2023-07-16T14:35:34;973.7;;;28.1;35.6
68873;BME280;55907;50.806;12.882;2023-07-16T14:38:35;973.7;;;27.9;35.3
68873;BME280;55907;50.806;12.882;2023-07-16T14:41:36;973.7;;;27.8;35.5
68873;BME280;55907;50.806;12.882;2023-07-16T14:44:38;973.7;;;27.8;36.2
68873;BME280;55907;50.806;12.882;2023-07-16T14:47:39;973.6;;;27.8;35.8
68873;BME280;55907;50.806;12.882;2023-07-16T14:50:40;973.7;;;27.9;36.1
68873;BME280;55907;50.806;12.882;2023-07-16T14:53:42;973.7;;;27.9;36.8
68873;BME280;55907;50.806;12.882;2023-07-16T14:56:43;973.7;;;27.9;35.8
68873;BME280;55907;50.806;12.882;2023-07-16T14:59:44;973.6;;;27.8;35.5
68873;BME280;55907;50.806;12.882;2023-07-16T15:02:46;973.7;;;27.7;36.0
68873;BME280;55907;50.806;12.882;2023-07-16T15:05:47;973.6;;;27.6;35.8
68873;BME280;55907;50.806;12.882;2023-07-16T15:08:48;973.6;;;27.7;36.3
68873;BME280;55907;50.806;12.882;2023-07-16T15:11:50;973.6;;;27.8;36.6
68873;BME280;55907;50.806;12.882;2023-07-16T15:14:51;973.6;;;27.9;36.2
68873;BME280;55907;50.806;12.882;2023-07-16T15:17:53;973.6;;;27.8;35.5
68873;BME280;55907;50.806;12.882;2023-07-16T15:20:56;973.6;;;27.3;35.5
68873;BME280;55907;50.806;12.882;2023-07-16T15:23:55;973.5;;;27.3;36.5
68873;BME280;55907;50.806;12.882;2023-07-16T15:26:57;973.6;;;27.5;36.7
68873;BME280;55907;50.806;12.882;2023-07-16T15:29:58;973.5;;;27.6;36.5
68873;BME280;55907;50.806;12.882;2023-07-16T15:32:59;973.5;;;27.7;36.2
68873;BME280;55907;50.806;12.882;2023-07-16T15:36:01;973.5;;;27.7;36.3
68873;BME280;55907;50.806;12.882;2023-07-16T15:39:02;973.5;;;27.7;36.4
68873;BME280;55907;50.806;12.882;2023-07-16T15:42:04;973.6;;;27.6;35.6
68873;BME280;55907;50.806;12.882;2023-07-16T15:45:06;973.4;;;27.4;36.3
68873;BME280;55907;50.806;12.882;2023-07-16T15:48:07;973.5;;;27.4;36.7
68873;BME280;55907;50.806;12.882;2023-07-16T15:51:08;973.5;;;27.5;36.8
68873;BME280;55907;50.806;12.882;2023-07-16T15:54:09;973.5;;;27.5;36.9
68873;BME280;55907;50.806;12.882;2023-07-16T15:57:10;973.4;;;27.3;35.8
68873;BME280;55907;50.806;12.882;2023-07-16T16:00:12;973.5;;;27.2;36.3
68873;BME280;55907;50.806;12.882;2023-07-16T16:03:13;973.5;;;27.1;35.6
68873;BME280;55907;50.806;12.882;2023-07-16T16:06:14;973.5;;;27.0;35.9
68873;BME280;55907;50.806;12.882;2023-07-16T16:09:16;973.5;;;27.0;35.8
68873;BME280;55907;50.806;12.882;2023-07-16T16:12:17;973.5;;;26.8;35.3
68873;BME280;55907;50.806;12.882;2023-07-16T16:15:18;973.5;;;26.9;36.0
68873;BME280;55907;50.806;12.882;2023-07-16T16:18:21;973.5;;;27.0;36.1
68873;BME280;55907;50.806;12.882;2023-07-16T16:21:21;973.5;;;26.9;35.5
68873;BME280;55907;50.806;12.882;2023-07-16T16:24:23;973.5;;;27.0;35.8
68873;BME280;55907;50.806;12.882;2023-07-16T16:27:24;973.5;;;27.0;35.7
68873;BME280;55907;50.806;12.882;2023-07-16T16:30:25;973.5;;;26.9;35.6
68873;BME280;55907;50.806;12.882;2023-07-16T16:33:27;973.5;;;26.9;35.9
68873;BME280;55907;50.806;12.882;2023-07-16T16:36:28;973.5;;;26.8;35.4
68873;BME280;55907;50.806;12.882;2023-07-16T16:39:29;973.6;;;26.8;35.5
68873;BME280;55907;50.806;12.882;2023-07-16T16:42:31;973.5;;;26.8;35.7
68873;BME280;55907;50.806;12.882;2023-07-16T16:45:32;973.5;;;27.0;35.7
68873;BME280;55907;50.806;12.882;2023-07-16T16:48:33;973.5;;;26.9;35.8
68873;BME280;55907;50.806;12.882;2023-07-16T16:51:35;973.5;;;26.9;35.5
68873;BME280;55907;50.806;12.882;2023-07-16T16:54:36;973.5;;;26.9;36.0